Main page
METAR-TAF:

METAR-TAF

Airports :

MidAmerica St. Louis Airport

Belleville, Illinois, United States

latitude: 38-33N, longitude: 089-51W, elevation: 459 ft

Current weather observation

The report was made 1 hour and 10 minutes ago, at 04:55 UTC
Calm wind
Temperature 43°F
Humidity 65%
Pressure 30.20 in. Hg
Visibility: 10 miles
Clear sky

METAR: KBLV 220455Z 00000KT 10SM CLR 06/00 A3020 RMK AO2A SLP231 T00580001 $

Time: 01:05 (06:05 UTC)

Forecast

The report was made 6 hours and 5 minutes ago, at 00:00 UTC
Forecast valid from 22 at 00 UTC to 23 at 06 UTC
Wind 7 mph from the Northwest
Visibility: 7221 ft
Clear sky
Becoming
from 22 at 16 UTC to 22 at 17 UTC
Wind 14 mph from the South/Southwest with gusts up to 23 mph
Visibility 6.2 miles or more
Clear sky

TAF: KBLV 220000Z 2200/2306 32012KT 9999 SKC QNH3015INS WND 32006KT AFT 2201 BECMG 2216/2217 20012G20KT 9999 SKC QNH2998INS TX20/2221Z TN02/2211Z

Weather observations and forecasts of more than 4000 airports (METAR and TAF reports).

The available stations are represented by yellow and red dots on the map.

Hover mouse over dot to see the name of the station.

Then click to see weather observations and forecasts.

To change the map : click on the green buttons with a black cross to zoom in, on the green button with a dash to zoom out, or on the green arrows for adjacent maps.


METAR-TAF: